Time;durP1;ratioP1;P1;durP2;ratioP2;P2;SDS_P1;SDS_P2;PMS_P1;PMS_P2;Temp;Humidity;BMP_temperature;BMP_pressure;BME280_temperature;BME280_humidity;BME280_pressure;Samples;Min_cycle;Max_cycle;Signal;HPM_P1;HPM_P2
2023/07/13 00:00:36;;;;;;;2.22;0.20;;;15.60;99.90;;;;;;5026684;28;20086;-79
2023/07/13 00:03:02;;;;;;;3.58;0.20;;;15.70;99.90;;;;;;5018616;28;20042;-78
2023/07/13 00:05:28;;;;;;;2.53;0.30;;;15.60;99.90;;;;;;5018737;28;20057;-78
2023/07/13 00:07:54;;;;;;;2.72;0.30;;;15.60;99.90;;;;;;5017500;28;20069;-78
2023/07/13 00:10:21;;;;;;;3.13;0.30;;;15.70;99.90;;;;;;5020487;28;20033;-80
2023/07/13 00:12:47;;;;;;;1.60;0.40;;;15.60;99.90;;;;;;5010813;28;20030;-78
2023/07/13 00:15:29;;;;;;;1.98;0.20;;;15.60;99.90;;;;;;5027427;28;20049;-79
2023/07/13 00:17:55;;;;;;;1.33;0.20;;;15.60;99.90;;;;;;5019545;28;20033;-79
2023/07/13 00:20:24;;;;;;;2.13;0.20;;;15.60;99.90;;;;;;5007379;28;20037;-79
2023/07/13 00:22:54;;;;;;;2.67;0.20;;;15.50;99.90;;;;;;5020222;28;20045;-79
2023/07/13 00:25:21;;;;;;;4.53;0.30;;;15.50;99.90;;;;;;5018958;28;20284;-79
2023/07/13 00:27:50;;;;;;;2.05;0.30;;;15.60;99.90;;;;;;5027262;28;20018;-79
2023/07/13 00:30:17;;;;;;;2.88;0.30;;;15.50;99.90;;;;;;5022842;28;20033;-78
2023/07/13 00:32:43;;;;;;;2.05;0.20;;;15.50;99.90;;;;;;5018625;28;20026;-80
2023/07/13 00:35:09;;;;;;;2.00;0.30;;;15.50;99.90;;;;;;5017494;28;20049;-78
2023/07/13 00:37:36;;;;;;;1.83;0.20;;;15.50;99.90;;;;;;5017839;28;20027;-78
2023/07/13 00:40:04;;;;;;;1.38;0.20;;;15.40;99.90;;;;;;5009603;28;20030;-79
2023/07/13 00:42:30;;;;;;;1.48;0.10;;;15.40;99.90;;;;;;5026526;28;20021;-78
2023/07/13 00:45:05;;;;;;;1.10;0.10;;;15.40;99.90;;;;;;5025028;28;20041;-78
2023/07/13 00:47:30;;;;;;;1.77;0.20;;;15.30;99.90;;;;;;5016875;28;20391;-79
2023/07/13 00:49:56;;;;;;;1.13;0.20;;;15.40;99.90;;;;;;5000571;28;20025;-79
2023/07/13 00:52:23;;;;;;;2.58;0.20;;;15.30;99.90;;;;;;5025918;28;20021;-78
2023/07/13 00:54:49;;;;;;;1.13;0.17;;;15.30;99.90;;;;;;5010534;28;20153;-78
2023/07/13 00:57:18;;;;;;;1.70;0.20;;;15.30;99.90;;;;;;5025811;28;20112;-79
2023/07/13 00:59:48;;;;;;;2.93;0.20;;;15.30;99.90;;;;;;5018234;28;20030;-79
2023/07/13 01:02:16;;;;;;;1.92;0.20;;;15.30;99.90;;;;;;5017527;28;20057;-79
2023/07/13 01:04:43;;;;;;;2.47;0.10;;;15.20;99.90;;;;;;5026584;28;20025;-79
2023/07/13 01:07:12;;;;;;;1.17;0.10;;;15.20;99.90;;;;;;5009111;28;20036;-79
2023/07/13 01:09:37;;;;;;;1.25;0.10;;;15.20;99.90;;;;;;5003782;28;20026;-79
2023/07/13 01:12:04;;;;;;;0.82;0.10;;;15.20;99.90;;;;;;5027712;28;20029;-78
2023/07/13 01:14:30;;;;;;;1.85;0.20;;;15.10;99.90;;;;;;5018545;28;20041;-79
2023/07/13 01:16:59;;;;;;;1.65;0.20;;;15.10;99.90;;;;;;5019656;28;20018;-79
2023/07/13 01:19:38;;;;;;;0.70;0.10;;;15.10;99.90;;;;;;5009613;28;20406;-79
2023/07/13 01:22:08;;;;;;;0.45;0.10;;;15.10;99.90;;;;;;5002791;28;20033;-79
2023/07/13 01:24:37;;;;;;;;;;;15.00;99.90;;;;;;5018670;28;20029;-79
2023/07/13 01:27:05;;;;;;;1.67;0.10;;;15.00;99.90;;;;;;5025981;28;19909;-78
2023/07/13 01:29:32;;;;;;;1.02;0.38;;;15.00;99.90;;;;;;5025264;28;20133;-79
2023/07/13 01:32:00;;;;;;;1.42;0.20;;;15.00;99.90;;;;;;5009232;28;20429;-79
2023/07/13 01:34:27;;;;;;;1.35;0.10;;;15.00;99.90;;;;;;5016816;28;20052;-78
2023/07/13 01:36:56;;;;;;;0.77;0.20;;;14.90;99.90;;;;;;5025169;28;20030;-78
2023/07/13 01:39:23;;;;;;;2.53;0.30;;;14.90;99.90;;;;;;5016625;28;20116;-78
2023/07/13 01:41:49;;;;;;;1.83;0.28;;;15.00;99.90;;;;;;5016562;28;20117;-78
2023/07/13 01:44:14;;;;;;;2.60;0.35;;;14.90;99.90;;;;;;5017530;28;20482;-78
2023/07/13 01:46:40;;;;;;;1.80;0.20;;;14.90;99.90;;;;;;5017525;28;20028;-80
2023/07/13 01:49:06;;;;;;;1.55;0.30;;;14.80;99.90;;;;;;5016482;28;20033;-79
2023/07/13 01:51:32;;;;;;;1.85;0.40;;;14.80;99.90;;;;;;5025724;28;20548;-79
2023/07/13 01:53:58;;;;;;;1.08;0.25;;;14.80;99.90;;;;;;5016004;28;20041;-79
2023/07/13 01:56:23;;;;;;;1.13;0.30;;;14.90;99.90;;;;;;5016456;28;20025;-78
2023/07/13 01:58:49;;;;;;;2.63;0.28;;;14.80;99.90;;;;;;5007406;28;20049;-78
2023/07/13 02:01:15;;;;;;;2.92;0.20;;;14.80;99.90;;;;;;5016972;28;20502;-77
2023/07/13 02:03:41;;;;;;;1.80;0.30;;;14.70;99.90;;;;;;5019018;28;20033;-79
2023/07/13 02:06:07;;;;;;;1.60;0.40;;;14.70;99.90;;;;;;5024118;28;20102;-79
2023/07/13 02:08:33;;;;;;;1.77;0.28;;;14.70;99.90;;;;;;5024912;28;20025;-78
2023/07/13 02:10:59;;;;;;;1.55;0.30;;;14.70;99.90;;;;;;5017611;28;20030;-79
2023/07/13 02:13:25;;;;;;;2.10;0.30;;;14.60;99.90;;;;;;5024007;28;20022;-79
2023/07/13 02:15:51;;;;;;;2.03;0.30;;;14.60;99.90;;;;;;5024549;28;20496;-77
2023/07/13 02:18:17;;;;;;;1.30;0.30;;;14.70;99.90;;;;;;5008244;28;20041;-79
2023/07/13 02:20:43;;;;;;;2.47;0.30;;;14.60;99.90;;;;;;5023351;28;20030;-79
2023/07/13 02:23:10;;;;;;;3.30;0.30;;;14.60;99.90;;;;;;5009105;28;20029;-78
2023/07/13 02:25:35;;;;;;;1.73;0.22;;;14.60;99.90;;;;;;5009297;28;20057;-79
2023/07/13 02:28:01;;;;;;;1.70;0.40;;;14.50;99.90;;;;;;5007726;28;20103;-78
2023/07/13 02:30:29;;;;;;;1.90;0.30;;;14.50;99.90;;;;;;5023552;28;20034;-79
2023/07/13 02:32:56;;;;;;;1.50;0.30;;;14.50;99.90;;;;;;5007237;28;20049;-78
2023/07/13 02:35:22;;;;;;;1.52;0.20;;;14.50;99.90;;;;;;4999562;28;20508;-78
2023/07/13 02:37:48;;;;;;;1.83;0.30;;;14.50;99.90;;;;;;5014637;28;20046;-78
2023/07/13 02:40:14;;;;;;;4.78;0.40;;;14.50;99.90;;;;;;5023959;28;20036;-79
2023/07/13 02:42:40;;;;;;;1.88;0.30;;;14.50;99.90;;;;;;5006471;28;20112;-78
2023/07/13 02:45:08;;;;;;;1.38;0.30;;;14.50;99.90;;;;;;5023417;28;20064;-78
2023/07/13 02:47:35;;;;;;;1.95;0.30;;;14.50;99.90;;;;;;5020104;28;20497;-78
2023/07/13 02:50:01;;;;;;;2.47;0.32;;;14.40;99.90;;;;;;5016795;28;20113;-78
2023/07/13 02:52:27;;;;;;;1.35;0.20;;;14.40;99.90;;;;;;5018856;28;20382;-78
2023/07/13 02:54:53;;;;;;;1.88;0.35;;;14.40;99.90;;;;;;5025251;28;20516;-78
2023/07/13 02:57:19;;;;;;;2.28;0.30;;;14.40;99.90;;;;;;5025131;28;20022;-78
2023/07/13 02:59:45;;;;;;;1.50;0.30;;;14.40;99.90;;;;;;5025605;28;20034;-78
2023/07/13 03:02:11;;;;;;;2.78;0.30;;;14.40;99.90;;;;;;5015541;28;20063;-77
2023/07/13 03:04:37;;;;;;;3.47;0.30;;;14.30;99.90;;;;;;5023926;28;20022;-78
2023/07/13 03:07:04;;;;;;;3.80;0.38;;;14.30;99.90;;;;;;5014453;28;20478;-80
2023/07/13 03:09:35;;;;;;;3.05;0.93;;;14.40;99.90;;;;;;5024286;28;20026;-79
2023/07/13 03:12:02;;;;;;;1.85;0.28;;;14.30;99.90;;;;;;5024534;28;20514;-78
2023/07/13 03:14:31;;;;;;;2.13;0.40;;;14.40;99.90;;;;;;5024541;28;20034;-78
2023/07/13 03:16:58;;;;;;;1.50;0.40;;;14.30;99.90;;;;;;5007135;28;20041;-80
2023/07/13 03:19:27;;;;;;;2.17;0.30;;;14.30;99.90;;;;;;5025077;28;20029;-78
2023/07/13 03:21:54;;;;;;;1.92;0.30;;;14.30;99.90;;;;;;5023689;28;20381;-78
2023/07/13 03:24:23;;;;;;;1.42;0.30;;;14.30;99.90;;;;;;5024228;28;20061;-79
2023/07/13 03:26:50;;;;;;;1.98;0.30;;;14.30;99.90;;;;;;5011694;28;20363;-79
2023/07/13 03:29:18;;;;;;;4.00;0.50;;;14.20;99.90;;;;;;5026887;28;20512;-79
2023/07/13 03:31:44;;;;;;;2.03;0.40;;;14.30;99.90;;;;;;5011110;28;20275;-81
2023/07/13 03:34:10;;;;;;;1.35;0.30;;;14.20;99.90;;;;;;5021536;28;20080;-81
2023/07/13 03:36:36;;;;;;;2.42;0.52;;;14.20;99.90;;;;;;5002516;28;20026;-78
2023/07/13 03:39:08;;;;;;;1.58;0.38;;;14.30;99.90;;;;;;5004020;28;20517;-79
2023/07/13 03:41:46;;;;;;;0.98;0.20;;;14.30;99.90;;;;;;5009914;28;20041;-79
2023/07/13 03:44:13;;;;;;;3.35;0.50;;;14.30;99.90;;;;;;5022083;28;20120;-79
2023/07/13 03:46:39;;;;;;;2.58;0.30;;;14.30;99.90;;;;;;5008899;28;20121;-81
2023/07/13 03:49:05;;;;;;;2.65;0.30;;;14.30;99.90;;;;;;5018008;28;20030;-80
2023/07/13 03:51:33;;;;;;;1.35;0.30;;;14.20;99.90;;;;;;5003742;28;20060;-79
2023/07/13 03:54:00;;;;;;;2.20;0.30;;;14.20;99.90;;;;;;5034695;28;20033;-81
2023/07/13 03:56:26;;;;;;;3.80;0.30;;;14.20;99.90;;;;;;5017819;28;20036;-79
2023/07/13 03:58:52;;;;;;;3.00;0.30;;;14.20;99.90;;;;;;5009776;28;20509;-78
2023/07/13 04:01:24;;;;;;;1.07;0.27;;;14.20;99.90;;;;;;5024929;28;20156;-80
2023/07/13 04:03:51;;;;;;;2.03;0.40;;;14.20;99.90;;;;;;5024935;28;20037;-79
2023/07/13 04:06:23;;;;;;;3.65;0.40;;;14.20;99.90;;;;;;5017263;28;20500;-79
2023/07/13 04:08:52;;;;;;;3.22;0.40;;;14.20;99.90;;;;;;5003295;28;20029;-78
2023/07/13 04:11:20;;;;;;;3.80;0.40;;;14.30;99.90;;;;;;5026423;28;20030;-79
2023/07/13 04:13:47;;;;;;;2.67;0.40;;;14.30;99.90;;;;;;5025864;28;20030;-78
2023/07/13 04:16:14;;;;;;;2.20;0.30;;;14.30;99.90;;;;;;5025647;28;20041;-77
2023/07/13 04:18:40;;;;;;;2.45;0.40;;;14.30;99.90;;;;;;5020025;28;20502;-78
2023/07/13 04:21:07;;;;;;;2.03;0.45;;;14.30;99.90;;;;;;5019895;28;20025;-76
2023/07/13 04:23:33;;;;;;;2.75;0.40;;;14.30;99.90;;;;;;5019442;28;20025;-81
2023/07/13 04:25:58;;;;;;;2.45;0.40;;;14.30;99.90;;;;;;5020543;28;20033;-79
2023/07/13 04:28:25;;;;;;;1.85;0.50;;;14.30;99.90;;;;;;5006843;28;20078;-79
2023/07/13 04:30:51;;;;;;;1.77;0.50;;;14.40;99.90;;;;;;5015691;28;20018;-78
2023/07/13 04:33:17;;;;;;;3.53;0.47;;;14.40;99.90;;;;;;5002059;28;20104;-79
2023/07/13 04:35:46;;;;;;;2.35;0.50;;;14.50;99.90;;;;;;5018861;28;20052;-79
2023/07/13 04:38:12;;;;;;;2.33;0.60;;;14.60;99.90;;;;;;5016693;28;20033;-78
2023/07/13 04:40:38;;;;;;;2.65;0.40;;;14.60;99.90;;;;;;5034789;28;20390;-79
2023/07/13 04:43:04;;;;;;;4.78;0.60;;;14.70;99.90;;;;;;5025653;28;20045;-78
2023/07/13 04:45:30;;;;;;;2.83;0.60;;;14.80;99.90;;;;;;5015878;28;20034;-79
2023/07/13 04:47:56;;;;;;;5.90;0.80;;;14.90;99.90;;;;;;5002330;28;20414;-80
2023/07/13 04:50:23;;;;;;;3.05;0.52;;;15.00;99.90;;;;;;5018505;28;20048;-78
2023/07/13 04:52:51;;;;;;;2.33;0.50;;;15.20;99.90;;;;;;5024739;28;20071;-79
2023/07/13 04:55:18;;;;;;;3.80;0.47;;;15.20;99.90;;;;;;5000264;28;20095;-78
2023/07/13 04:57:45;;;;;;;3.40;0.50;;;15.20;99.90;;;;;;5026908;28;20490;-80
2023/07/13 05:00:12;;;;;;;2.45;0.40;;;15.40;99.90;;;;;;5020000;28;20057;-79
2023/07/13 05:02:39;;;;;;;5.25;1.10;;;15.60;99.90;;;;;;5002253;28;20049;-78
2023/07/13 05:05:06;;;;;;;6.10;0.70;;;15.60;99.90;;;;;;5016493;28;20084;-79
2023/07/13 05:07:32;;;;;;;2.53;0.70;;;15.70;99.90;;;;;;5009840;28;20087;-78
2023/07/13 05:09:59;;;;;;;1.75;0.50;;;16.00;99.90;;;;;;5014376;28;20029;-79
2023/07/13 05:12:26;;;;;;;3.55;0.50;;;16.00;99.90;;;;;;5030043;28;20135;-80
2023/07/13 05:14:52;;;;;;;4.70;0.85;;;16.00;99.90;;;;;;4997863;28;20056;-79
2023/07/13 05:17:18;;;;;;;2.10;0.60;;;15.90;99.90;;;;;;5017954;28;20715;-81
2023/07/13 05:19:44;;;;;;;2.72;0.50;;;15.80;99.90;;;;;;5009211;28;20112;-80
2023/07/13 05:22:10;;;;;;;2.60;0.60;;;15.80;99.90;;;;;;5009422;28;20032;-81
2023/07/13 05:24:36;;;;;;;3.42;0.47;;;15.80;99.90;;;;;;5016733;28;20503;-79
2023/07/13 05:27:05;;;;;;;2.30;0.40;;;15.90;99.90;;;;;;5018313;28;20409;-81
2023/07/13 05:29:31;;;;;;;2.92;0.52;;;16.00;99.90;;;;;;5002000;28;20034;-80
2023/07/13 05:31:57;;;;;;;3.05;0.60;;;16.00;99.90;;;;;;5025039;28;20113;-79
2023/07/13 05:34:23;;;;;;;4.63;0.70;;;16.00;99.90;;;;;;5007872;28;20124;-79
2023/07/13 05:36:49;;;;;;;6.68;0.82;;;16.00;99.90;;;;;;5024836;28;20184;-79
2023/07/13 05:39:15;;;;;;;4.95;0.85;;;16.10;99.90;;;;;;5017351;28;20431;-81
2023/07/13 05:41:41;;;;;;;8.75;2.13;;;16.10;99.90;;;;;;5006205;28;20053;-80
2023/07/13 05:44:08;;;;;;;7.50;1.40;;;16.00;99.90;;;;;;5025804;28;20033;-80
2023/07/13 05:46:34;;;;;;;6.43;1.10;;;16.10;99.90;;;;;;5006164;28;20109;-80
2023/07/13 05:49:00;;;;;;;6.85;1.52;;;16.10;99.90;;;;;;5024628;28;20482;-80
2023/07/13 05:51:26;;;;;;;13.15;3.90;;;16.10;99.90;;;;;;5006387;28;20030;-80
2023/07/13 05:53:51;;;;;;;8.68;2.70;;;15.90;99.90;;;;;;5002204;28;20032;-77
2023/07/13 05:56:17;;;;;;;10.30;3.10;;;16.00;99.90;;;;;;5017387;28;20075;-80
2023/07/13 05:58:43;;;;;;;7.78;2.78;;;16.10;99.90;;;;;;5019122;28;20029;-79
2023/07/13 06:01:12;;;;;;;12.73;4.72;;;16.10;99.90;;;;;;5004603;28;20038;-82
2023/07/13 06:03:38;;;;;;;14.13;3.23;;;16.00;99.90;;;;;;5032359;28;20403;-79
2023/07/13 06:06:09;;;;;;;16.90;4.65;;;16.10;99.90;;;;;;5024583;28;20044;-80
2023/07/13 06:08:35;;;;;;;11.23;4.97;;;16.20;99.90;;;;;;5024658;28;20097;-79
2023/07/13 06:11:21;;;;;;;10.07;4.18;;;16.30;99.90;;;;;;5016255;28;20026;-81
2023/07/13 06:13:47;;;;;;;8.32;3.60;;;16.40;99.90;;;;;;5015916;28;20105;-80
2023/07/13 06:16:14;;;;;;;10.23;4.65;;;16.60;99.90;;;;;;5023551;28;20113;-81
2023/07/13 06:18:41;;;;;;;14.90;6.55;;;16.70;99.90;;;;;;5018102;28;20026;-80
2023/07/13 06:21:21;;;;;;;21.67;7.47;;;16.60;99.90;;;;;;5016525;28;20039;-81
2023/07/13 06:23:48;;;;;;;;;;;16.50;99.90;;;;;;5015383;28;20036;-80
2023/07/13 06:26:14;;;;;;;21.52;6.90;;;16.70;99.90;;;;;;5018284;28;20230;-80
2023/07/13 06:28:40;;;;;;;13.80;5.85;;;16.80;99.90;;;;;;5024263;28;20390;-82
2023/07/13 06:31:08;;;;;;;15.45;6.40;;;17.20;99.90;;;;;;5024860;28;20082;-80
2023/07/13 06:33:34;;;;;;;13.23;5.20;;;17.40;99.90;;;;;;5008777;28;20095;-82
2023/07/13 06:36:02;;;;;;;17.00;6.68;;;17.70;99.90;;;;;;5013143;28;20088;-81
2023/07/13 06:38:27;;;;;;;20.90;8.43;;;17.40;99.90;;;;;;5016452;28;20022;-82
2023/07/13 06:40:53;;;;;;;15.70;7.75;;;17.00;99.90;;;;;;5014337;28;20036;-81
2023/07/13 06:43:20;;;;;;;14.15;6.80;;;17.10;99.90;;;;;;5008183;28;20053;-80
2023/07/13 06:45:49;;;;;;;16.40;5.43;;;17.50;99.90;;;;;;5009144;28;20034;-81
2023/07/13 06:48:17;;;;;;;14.48;5.78;;;17.70;99.90;;;;;;5007300;28;20132;-82
2023/07/13 06:50:43;;;;;;;10.77;4.53;;;17.90;99.90;;;;;;5001869;28;20083;-81
2023/07/13 06:53:11;;;;;;;20.85;8.15;;;17.90;99.90;;;;;;5014723;28;20065;-81
2023/07/13 06:55:40;;;;;;;13.45;6.78;;;17.40;99.90;;;;;;4998367;28;20084;-81
2023/07/13 06:58:06;;;;;;;10.23;4.85;;;17.80;99.90;;;;;;5003825;28;20037;-81
2023/07/13 07:00:32;;;;;;;18.85;6.50;;;18.10;99.90;;;;;;5015247;28;20359;-81
2023/07/13 07:02:58;;;;;;;20.90;8.40;;;17.80;99.90;;;;;;5014637;28;20132;-82
2023/07/13 07:05:23;;;;;;;14.20;6.60;;;17.50;99.90;;;;;;5017417;28;20403;-81
2023/07/13 07:07:51;;;;;;;18.52;7.07;;;17.60;99.90;;;;;;5004200;28;20072;-81
2023/07/13 07:10:17;;;;;;;17.20;7.80;;;17.60;99.90;;;;;;5015645;28;20544;-81
2023/07/13 07:12:43;;;;;;;17.77;7.40;;;17.60;99.90;;;;;;5000146;28;20030;-82
2023/07/13 07:15:09;;;;;;;16.30;6.90;;;17.50;99.90;;;;;;5017022;28;20095;-81
2023/07/13 07:17:35;;;;;;;14.55;8.85;;;17.40;99.90;;;;;;4998325;28;20026;-82
2023/07/13 07:20:01;;;;;;;16.38;9.13;;;17.30;99.90;;;;;;5018816;28;20029;-82
2023/07/13 07:22:27;;;;;;;14.90;7.57;;;17.20;99.90;;;;;;5000517;28;20245;-80
2023/07/13 07:24:53;;;;;;;16.77;7.30;;;17.40;99.90;;;;;;5014802;28;20025;-82
2023/07/13 07:27:20;;;;;;;19.33;9.38;;;17.50;99.90;;;;;;5014484;28;20028;-83
2023/07/13 07:29:45;;;;;;;14.68;7.25;;;17.40;99.90;;;;;;5016989;28;20034;-82
2023/07/13 07:32:11;;;;;;;11.60;5.45;;;17.50;99.90;;;;;;5020899;28;20021;-82
2023/07/13 07:34:37;;;;;;;15.27;6.32;;;17.90;99.90;;;;;;5017711;28;20426;-80
2023/07/13 07:37:03;;;;;;;14.90;6.47;;;18.10;99.90;;;;;;4999987;28;20091;-81
2023/07/13 07:39:29;;;;;;;12.60;5.70;;;18.10;99.90;;;;;;4999118;28;20030;-81
2023/07/13 07:41:55;;;;;;;20.33;9.95;;;18.00;99.90;;;;;;5006013;28;20034;-81
2023/07/13 07:44:21;;;;;;;16.17;7.53;;;18.00;99.90;;;;;;5023683;28;20029;-81
2023/07/13 07:46:47;;;;;;;15.73;7.88;;;18.20;99.90;;;;;;5008391;28;20141;-81
2023/07/13 07:49:13;;;;;;;19.45;8.80;;;18.20;99.90;;;;;;5004930;28;20108;-82
2023/07/13 07:51:39;;;;;;;19.55;9.77;;;18.20;99.90;;;;;;5009031;28;20067;-81
2023/07/13 07:54:05;;;;;;;16.73;8.60;;;18.00;99.90;;;;;;5007550;28;20049;-83
2023/07/13 07:56:32;;;;;;;15.43;7.57;;;18.00;99.90;;;;;;5017979;28;20033;-82
2023/07/13 07:58:58;;;;;;;15.20;7.25;;;18.00;99.90;;;;;;5022476;28;20405;-81
2023/07/13 08:01:24;;;;;;;8.38;5.45;;;18.00;99.90;;;;;;5016108;28;20107;-81
2023/07/13 08:03:50;;;;;;;18.00;9.05;;;18.10;99.90;;;;;;5005122;28;20026;-82
2023/07/13 08:06:16;;;;;;;13.68;7.38;;;18.10;99.90;;;;;;4990882;28;20489;-82
2023/07/13 08:08:42;;;;;;;13.02;7.28;;;18.10;99.90;;;;;;4999273;28;20030;-81
2023/07/13 08:11:09;;;;;;;13.40;5.78;;;18.20;99.90;;;;;;4999908;28;20088;-81
2023/07/13 08:13:35;;;;;;;7.85;4.10;;;18.60;99.90;;;;;;5015217;28;20359;-82
2023/07/13 08:16:01;;;;;;;11.43;6.00;;;18.80;99.90;;;;;;5018019;28;20495;-82
2023/07/13 08:18:29;;;;;;;10.25;5.95;;;18.60;99.90;;;;;;5022099;28;20442;-81
2023/07/13 08:20:58;;;;;;;16.50;6.93;;;18.60;99.90;;;;;;5006752;28;20038;-81
2023/07/13 08:23:25;;;;;;;14.80;7.32;;;18.60;99.90;;;;;;4997834;28;20497;-82
2023/07/13 08:25:55;;;;;;;13.95;5.85;;;18.50;99.90;;;;;;5021025;28;20056;-81
2023/07/13 08:28:24;;;;;;;15.18;6.80;;;18.30;99.90;;;;;;4998050;28;20454;-82
2023/07/13 08:30:51;;;;;;;7.80;4.00;;;18.40;99.90;;;;;;5014199;28;20030;-82
2023/07/13 08:33:23;;;;;;;8.45;4.88;;;18.70;99.90;;;;;;5013373;28;20470;-81
2023/07/13 08:35:50;;;;;;;9.73;4.10;;;19.20;99.90;;;;;;5006372;28;20088;-81
2023/07/13 08:38:17;;;;;;;14.02;6.78;;;19.70;99.90;;;;;;5014675;28;20025;-81
2023/07/13 08:40:44;;;;;;;13.10;5.00;;;19.40;99.90;;;;;;5014957;28;20048;-81
2023/07/13 08:43:18;;;;;;;11.70;6.07;;;19.70;99.90;;;;;;5014250;28;20409;-81
2023/07/13 08:45:57;;;;;;;10.75;4.15;;;20.00;99.90;;;;;;5006426;28;20190;-80
2023/07/13 08:48:35;;;;;;;10.27;6.25;;;20.50;99.90;;;;;;4999002;28;20029;-81
2023/07/13 08:51:10;;;;;;;7.88;3.70;;;20.00;99.90;;;;;;5015167;28;20033;-82
2023/07/13 08:53:46;;;;;;;9.85;4.40;;;20.50;99.90;;;;;;5005532;28;20366;-81
2023/07/13 08:56:25;;;;;;;8.40;3.85;;;21.10;99.90;;;;;;4999807;28;20049;-81
2023/07/13 08:58:57;;;;;;;10.88;3.97;;;21.60;99.90;;;;;;5014701;28;20014;-81
2023/07/13 09:01:50;;;;;;;14.60;5.60;;;21.70;99.90;;;;;;5021380;28;20037;-81
2023/07/13 09:04:22;;;;;;;7.80;4.00;;;20.60;99.90;;;;;;5014975;28;20427;-81
2023/07/13 09:06:53;;;;;;;6.28;3.17;;;21.40;99.90;;;;;;5004275;28;20071;-81
2023/07/13 09:09:33;;;;;;;6.15;2.83;;;22.20;99.90;;;;;;5014646;28;20033;-81
2023/07/13 09:12:14;;;;;;;4.90;2.50;;;23.10;99.90;;;;;;4997548;28;20033;-81
2023/07/13 09:14:46;;;;;;;7.10;3.35;;;22.50;99.90;;;;;;5015205;28;20077;-81
2023/07/13 09:17:18;;;;;;;12.93;4.50;;;21.90;99.90;;;;;;5004396;28;20458;-80
2023/07/13 09:19:49;;;;;;;9.23;4.82;;;20.70;99.90;;;;;;4999609;28;20025;-82
2023/07/13 09:22:20;;;;;;;5.43;2.58;;;20.10;99.90;;;;;;5013323;28;20049;-80
2023/07/13 09:24:54;;;;;;;8.30;2.63;;;20.80;99.90;;;;;;5011493;28;20030;-80
2023/07/13 09:27:30;;;;;;;7.47;2.58;;;21.50;99.90;;;;;;5012332;28;20550;-82
2023/07/13 09:30:17;;;;;;;4.68;1.95;;;22.30;99.90;;;;;;5020698;28;20034;-82
2023/07/13 09:32:48;;;;;;;7.50;3.20;;;22.60;99.90;;;;;;5013340;28;20025;-81
2023/07/13 09:35:18;;;;;;;4.70;2.35;;;21.70;99.90;;;;;;4999315;28;20044;-81
2023/07/13 09:37:46;;;;;;;10.35;3.03;;;21.80;99.90;;;;;;4996531;28;20036;-81
2023/07/13 09:40:27;;;;;;;6.13;2.22;;;21.70;99.90;;;;;;5020601;28;20080;-81
2023/07/13 09:42:56;;;;;;;7.72;2.92;;;22.50;99.90;;;;;;4999512;28;20026;-82
2023/07/13 09:45:29;;;;;;;7.57;2.45;;;21.70;99.90;;;;;;5015103;28;20032;-82
2023/07/13 09:48:13;;;;;;;8.57;2.55;;;21.50;99.90;;;;;;5020792;28;20322;-82
2023/07/13 09:50:41;;;;;;;7.10;2.03;;;22.00;99.90;;;;;;4998327;28;20022;-82
2023/07/13 09:53:16;;;;;;;7.15;2.22;;;21.70;99.90;;;;;;4997834;28;20032;-82
2023/07/13 09:55:48;;;;;;;6.15;3.70;;;21.70;99.90;;;;;;5016167;28;20053;-83
2023/07/13 09:58:22;;;;;;;7.50;2.45;;;21.20;99.90;;;;;;4995889;28;20056;-82
2023/07/13 10:01:04;;;;;;;5.15;2.38;;;21.10;99.90;;;;;;5011088;28;20493;-82
2023/07/13 10:03:37;;;;;;;7.90;3.85;;;20.50;99.90;;;;;;5013890;28;20042;-82
2023/07/13 10:06:17;;;;;;;10.02;4.18;;;19.60;99.90;;;;;;4998087;28;20042;-83
2023/07/13 10:08:45;;;;;;;7.40;3.40;;;18.60;99.90;;;;;;5016994;28;20021;-83
2023/07/13 10:11:18;;;;;;;6.22;2.03;;;18.60;99.90;;;;;;4994750;28;20513;-83
2023/07/13 10:13:57;;;;;;;6.15;3.00;;;18.60;99.90;;;;;;5010609;28;20109;-83
2023/07/13 10:16:33;;;;;;;4.40;1.80;;;18.60;99.90;;;;;;5026198;28;20042;-82
2023/07/13 10:19:03;;;;;;;5.40;2.38;;;18.70;99.90;;;;;;4997425;28;20033;-82
2023/07/13 10:21:35;;;;;;;3.97;1.75;;;18.80;99.90;;;;;;5002929;28;20033;-82
2023/07/13 10:24:18;;;;;;;3.33;1.85;;;19.20;99.90;;;;;;5004169;28;20033;-81
2023/07/13 10:27:04;;;;;;;3.75;1.85;;;19.50;99.90;;;;;;5004983;28;20032;-81
2023/07/13 10:29:35;;;;;;;5.90;2.65;;;19.80;99.90;;;;;;4996230;28;22680;-81
2023/07/13 10:32:01;;;;;;;7.28;3.50;;;20.00;99.90;;;;;;5012578;28;20025;-82
2023/07/13 10:34:28;;;;;;;7.95;3.85;;;20.40;99.90;;;;;;5021628;28;20110;-81
2023/07/13 10:36:55;;;;;;;7.25;4.72;;;21.20;99.90;;;;;;5022400;28;20026;-82
2023/07/13 10:39:27;;;;;;;7.63;4.13;;;20.70;99.90;;;;;;5016155;28;20026;-82
2023/07/13 10:42:18;;;;;;;9.15;5.55;;;20.50;99.90;;;;;;5021208;28;20095;-82
2023/07/13 10:44:43;;;;;;;8.65;4.80;;;20.70;99.90;;;;;;5024418;28;20018;-82
2023/07/13 10:47:16;;;;;;;7.68;3.75;;;20.30;99.90;;;;;;5008746;28;20030;-81
2023/07/13 10:49:43;;;;;;;6.88;3.95;;;20.30;99.90;;;;;;5001595;28;20025;-82
2023/07/13 10:52:50;;;;;;;5.93;3.17;;;20.60;99.90;;;;;;5000528;28;20033;-82
2023/07/13 10:55:32;;;;;;;6.53;2.88;;;21.50;99.90;;;;;;5004643;28;20034;-81
2023/07/13 10:58:28;;;;;;;10.90;5.47;;;22.30;99.90;;;;;;4998934;28;20033;-83
2023/07/13 11:01:12;;;;;;;6.20;3.55;;;21.00;99.90;;;;;;5012790;28;20045;-82
2023/07/13 11:04:02;;;;;;;9.43;4.55;;;21.20;99.90;;;;;;5002014;28;20088;-82
2023/07/13 11:06:31;;;;;;;5.03;2.50;;;20.70;99.90;;;;;;4996743;28;20572;-82
2023/07/13 11:09:36;;;;;;;5.63;2.45;;;20.80;99.90;;;;;;5000797;28;20117;-82
2023/07/13 11:12:17;;;;;;;6.45;3.47;;;21.10;99.90;;;;;;5005850;28;20026;-82
2023/07/13 11:14:55;;;;;;;6.75;3.67;;;20.60;99.90;;;;;;5012717;28;20034;-83
2023/07/13 11:17:37;;;;;;;7.70;4.25;;;20.40;99.90;;;;;;5014049;28;20049;-82
2023/07/13 11:20:15;;;;;;;6.28;3.80;;;20.20;99.90;;;;;;5016103;28;20084;-82
2023/07/13 11:23:06;;;;;;;3.95;3.38;;;20.00;99.90;;;;;;5022079;28;20390;-81
2023/07/13 11:25:34;;;;;;;6.93;2.80;;;20.00;99.90;;;;;;5007098;28;20466;-82
2023/07/13 11:28:12;;;;;;;4.55;1.67;;;20.00;99.90;;;;;;5022940;28;20033;-81
2023/07/13 11:30:43;;;;;;;5.30;2.50;;;20.10;99.90;;;;;;5022826;28;20108;-82
2023/07/13 11:33:15;;;;;;;4.38;2.67;;;20.30;99.90;;;;;;4999818;28;20033;-81
2023/07/13 11:35:44;;;;;;;4.28;1.75;;;20.30;99.90;;;;;;4996871;28;20056;-81
2023/07/13 11:38:23;;;;;;;3.53;2.55;;;21.20;99.90;;;;;;5011588;28;20026;-82
2023/07/13 11:40:54;;;;;;;3.22;1.63;;;21.40;99.90;;;;;;5008225;28;20378;-83
2023/07/13 11:43:23;;;;;;;5.10;2.80;;;21.50;99.90;;;;;;5000521;28;20390;-82
2023/07/13 11:45:50;;;;;;;4.38;3.42;;;21.40;99.90;;;;;;5022936;28;20382;-82
2023/07/13 11:48:31;;;;;;;5.18;2.15;;;21.50;99.90;;;;;;5023880;28;20033;-82
2023/07/13 11:51:02;;;;;;;4.68;2.67;;;21.30;99.90;;;;;;5023378;28;20057;-82
2023/07/13 11:53:34;;;;;;;3.40;1.58;;;21.00;99.90;;;;;;5000563;28;20133;-82
2023/07/13 11:56:01;;;;;;;4.50;2.17;;;20.90;99.90;;;;;;5016149;28;20234;-82
2023/07/13 11:58:28;;;;;;;6.60;1.60;;;20.70;99.90;;;;;;5007266;28;20017;-82
2023/07/13 12:00:57;;;;;;;2.65;0.85;;;20.80;99.90;;;;;;5016989;28;20049;-81
2023/07/13 12:03:25;;;;;;;3.47;1.00;;;21.30;99.90;;;;;;5000049;28;20043;-82
2023/07/13 12:06:00;;;;;;;3.97;1.08;;;20.70;99.90;;;;;;5022462;28;20526;-82
2023/07/13 12:08:27;;;;;;;2.90;0.90;;;20.20;99.90;;;;;;4999000;28;20033;-82
2023/07/13 12:11:09;;;;;;;2.88;0.60;;;20.00;99.90;;;;;;5004392;28;20148;-82
2023/07/13 12:13:38;;;;;;;1.88;0.60;;;20.40;99.90;;;;;;5001266;28;20025;-82
2023/07/13 12:16:14;;;;;;;2.80;0.50;;;20.90;99.90;;;;;;5000901;28;20399;-82
2023/07/13 12:18:41;;;;;;;2.38;0.50;;;21.70;99.90;;;;;;5023830;28;20033;-82
2023/07/13 12:21:14;;;;;;;1.90;0.40;;;22.10;99.90;;;;;;5014014;28;20120;-82
2023/07/13 12:23:43;;;;;;;1.65;0.50;;;22.10;99.90;;;;;;5019945;28;20036;-81
2023/07/13 12:26:11;;;;;;;2.22;0.50;;;21.70;99.90;;;;;;5022316;28;20037;-82
2023/07/13 12:28:38;;;;;;;3.30;0.40;;;21.20;99.90;;;;;;4999677;28;20041;-82
2023/07/13 12:31:24;;;;;;;3.45;0.50;;;21.20;99.90;;;;;;5005896;28;20033;-82
2023/07/13 12:33:57;;;;;;;3.40;0.80;;;21.90;99.90;;;;;;5013650;28;20462;-83
2023/07/13 12:36:23;;;;;;;2.80;0.70;;;22.20;99.90;;;;;;4997644;28;20371;-82
2023/07/13 12:38:49;;;;;;;2.60;0.50;;;22.10;99.90;;;;;;4997312;28;20022;-81
2023/07/13 12:41:15;;;;;;;1.40;0.40;;;22.20;99.90;;;;;;5006023;28;20473;-81
2023/07/13 12:43:41;;;;;;;1.35;0.40;;;22.00;99.90;;;;;;4997039;28;20033;-81
2023/07/13 12:46:24;;;;;;;3.58;0.50;;;21.60;99.90;;;;;;5005845;28;20386;-81
2023/07/13 12:48:54;;;;;;;4.22;0.80;;;21.30;99.90;;;;;;5003272;28;20164;-81
2023/07/13 12:51:25;;;;;;;5.57;1.02;;;20.80;99.90;;;;;;5006730;28;20083;-81
2023/07/13 12:54:04;;;;;;;2.47;0.60;;;20.40;99.90;;;;;;5003234;28;20139;-81
2023/07/13 12:56:33;;;;;;;4.30;0.80;;;20.40;99.90;;;;;;5013664;28;20251;-81